F/V Moorea — FMIT — position and weather

sailwx.info

Track history (hours):
 
Tides and Currents Weather Stations Pressure Air Temp Water Temp Dewpoint Dewpoint Depression Visibility Wind Speed Wind Dir Waves Ship Positions

F/V Moorea

Last reported at 2017-Dec-15 07:10 UTC. Time now 2017-Dec-15 08:26 UTC.
Position N 47°07' W 003°01'.

Length 18 m.

Type: Fishing. MMSI: 228239900.

Date/timePositionNaut miles runAvg speedWind from/ knotsBaromVisibWave heightAir tempDewpointWater temp
2017-Dec-15 07:10N 47°07' W 003°01'1 3.1
2017-Dec-15 06:59N 47°07' W 003°01'14 2.4
2017-Dec-15 01:00N 47°11' W 002°41'4 8.7
2017-Dec-15 00:30N 47°15' W 002°38'5 0.6
2017-Dec-14 14:59N 47°18' W 002°31'23 2.7
2017-Dec-14 06:20N 47°07' W 003°02'5 0.9
2017-Dec-14 00:37N 47°06' W 002°54'5 0.1
2017-Dec-12 13:42N 47°08' W 003°00'12 2.2
2017-Dec-12 08:23N 47°11' W 002°44'3 9.0
2017-Dec-12 08:00N 47°13' W 002°40'5 9.3
2017-Dec-12 07:30N 47°17' W 002°36'4 0.1
2017-Dec-10 21:21N 47°18' W 002°31'6 7.1
2017-Dec-10 20:29N 47°15' W 002°38'9 7.7
2017-Dec-10 19:16N 47°11' W 002°51'2 2.6
2017-Dec-10 18:38N 47°12' W 002°52'0 3.0
2017-Dec-10 18:30N 47°12' W 002°52'2 2.8
2017-Dec-10 17:55N 47°14' W 002°53'7 0.2
2017-Dec-09 00:06N 47°09' W 002°46'1 9.8
2017-Dec-09 00:00N 47°10' W 002°45'5 9.8
2017-Dec-08 23:30N 47°13' W 002°40'5 9.9
2017-Dec-08 23:00N 47°17' W 002°35'3 6.5
2017-Dec-08 22:30N 47°18' W 002°31'0 0.0
2017-Dec-08 21:32N 47°18' W 002°31'0 0.0
2017-Dec-08 21:26N 47°18' W 002°31'0 0.9
2017-Dec-08 21:00N 47°18' W 002°31'6 7.2
2017-Dec-08 20:07N 47°14' W 002°39'1 9.4
2017-Dec-08 20:00N 47°14' W 002°40'  
Track history (hours):
 
Tides and Currents Weather Stations Pressure Air Temp Water Temp Dewpoint Dewpoint Depression Visibility Wind Speed Wind Dir Waves Ship Positions

F/V Moorea

Last reported at 2017-Dec-15 07:10 UTC. Time now 2017-Dec-15 08:26 UTC.
Position N 47°07' W 003°01'.

Length 18 m.

Type: Fishing. MMSI: 228239900.

Date/timePositionNaut miles runAvg speedWind from/ knotsBaromVisibWave heightAir tempDewpointWater temp
2017-Dec-15 07:10N 47°07' W 003°01'1 3.1
2017-Dec-15 06:59N 47°07' W 003°01'14 2.4
2017-Dec-15 01:00N 47°11' W 002°41'4 8.7
2017-Dec-15 00:30N 47°15' W 002°38'5 0.6
2017-Dec-14 14:59N 47°18' W 002°31'23 2.7
2017-Dec-14 06:20N 47°07' W 003°02'5 0.9
2017-Dec-14 00:37N 47°06' W 002°54'5 0.1
2017-Dec-12 13:42N 47°08' W 003°00'12 2.2
2017-Dec-12 08:23N 47°11' W 002°44'3 9.0
2017-Dec-12 08:00N 47°13' W 002°40'5 9.3
2017-Dec-12 07:30N 47°17' W 002°36'4 0.1
2017-Dec-10 21:21N 47°18' W 002°31'6 7.1
2017-Dec-10 20:29N 47°15' W 002°38'9 7.7
2017-Dec-10 19:16N 47°11' W 002°51'2 2.6
2017-Dec-10 18:38N 47°12' W 002°52'0 3.0
2017-Dec-10 18:30N 47°12' W 002°52'2 2.8
2017-Dec-10 17:55N 47°14' W 002°53'7 0.2
2017-Dec-09 00:06N 47°09' W 002°46'1 9.8
2017-Dec-09 00:00N 47°10' W 002°45'5 9.8
2017-Dec-08 23:30N 47°13' W 002°40'5 9.9
2017-Dec-08 23:00N 47°17' W 002°35'3 6.5
2017-Dec-08 22:30N 47°18' W 002°31'0 0.0
2017-Dec-08 21:32N 47°18' W 002°31'0 0.0
2017-Dec-08 21:26N 47°18' W 002°31'0 0.9
2017-Dec-08 21:00N 47°18' W 002°31'6 7.2
2017-Dec-08 20:07N 47°14' W 002°39'1 9.4
2017-Dec-08 20:00N 47°14' W 002°40'  

Dump ship's entire track history